createdAt,value
2023-01-28T00:03:52.433Z,92.97
2023-01-28T00:08:56.300Z,92.21
2023-01-28T00:13:59.858Z,93.10
2023-01-28T00:19:03.399Z,93.83
2023-01-28T00:24:07.424Z,94.93
2023-01-28T00:29:10.635Z,95.49
2023-01-28T00:34:13.743Z,96.83
2023-01-28T00:39:17.254Z,97.14
2023-01-28T00:44:21.713Z,97.79
2023-01-28T00:49:25.074Z,98.23
2023-01-28T00:54:28.346Z,97.64
2023-01-28T00:59:31.715Z,98.13
2023-01-28T01:04:35.674Z,98.31
2023-01-28T01:09:39.568Z,98.10
2023-01-28T01:14:42.510Z,98.50
2023-01-28T01:19:45.923Z,98.67
2023-01-28T01:24:49.221Z,99.06
2023-01-28T01:29:52.236Z,98.96
2023-01-28T01:34:55.284Z,99.23
2023-01-28T01:39:58.949Z,99.40
2023-01-28T01:45:03.824Z,99.68
2023-01-28T01:50:16.792Z,99.96
2023-01-28T01:55:25.383Z,99.91
2023-01-28T02:00:29.672Z,100.00
2023-01-28T02:05:32.946Z,100.00
2023-01-28T02:10:36.852Z,100.00
2023-01-28T02:15:40.001Z,99.84
2023-01-28T02:21:33.526Z,100.00
2023-01-28T02:27:02.111Z,100.00
2023-01-28T02:32:40.685Z,100.00
2023-01-28T02:37:47.176Z,100.00
2023-01-28T02:42:50.493Z,100.00
2023-01-28T02:48:00.514Z,100.00
2023-01-28T02:53:44.223Z,100.00
2023-01-28T02:58:59.801Z,100.00
2023-01-28T03:04:30.720Z,100.00
2023-01-28T03:09:36.266Z,100.00
2023-01-28T03:15:01.174Z,100.00
2023-01-28T03:20:24.042Z,100.00
2023-01-28T03:25:47.019Z,100.00
2023-01-28T03:31:36.667Z,100.00
2023-01-28T03:36:56.519Z,100.00
2023-01-28T03:42:12.247Z,100.00
2023-01-28T03:47:40.948Z,100.00
2023-01-28T03:52:47.091Z,100.00
2023-01-28T03:58:06.245Z,100.00
2023-01-28T04:03:17.363Z,100.00
2023-01-28T04:08:29.893Z,100.00
2023-01-28T04:13:51.568Z,100.00
2023-01-28T04:18:55.831Z,100.00
2023-01-28T04:23:58.967Z,100.00
2023-01-28T04:29:03.666Z,100.00
2023-01-28T04:34:10.313Z,100.00
2023-01-28T04:39:21.669Z,100.00
2023-01-28T04:44:44.271Z,100.00
2023-01-28T04:50:09.285Z,100.00
2023-01-28T04:55:24.478Z,100.00
2023-01-28T05:00:28.380Z,100.00
2023-01-28T05:05:31.524Z,100.00
2023-01-28T05:10:40.759Z,100.00
2023-01-28T05:15:44.328Z,100.00
2023-01-28T05:20:48.027Z,100.00
2023-01-28T05:25:52.113Z,100.00
2023-01-28T05:30:56.034Z,100.00
2023-01-28T05:35:59.516Z,100.00
2023-01-28T05:41:03.460Z,100.00
2023-01-28T05:46:07.514Z,100.00
2023-01-28T05:51:39.710Z,100.00
2023-01-28T05:56:44.803Z,100.00
2023-01-28T06:01:48.683Z,100.00
2023-01-28T06:06:54.440Z,100.00
2023-01-28T06:11:58.005Z,100.00
2023-01-28T06:17:11.825Z,100.00
2023-01-28T06:22:36.125Z,100.00
2023-01-28T06:27:39.641Z,100.00
2023-01-28T06:32:42.879Z,100.00
2023-01-28T06:37:46.732Z,100.00
2023-01-28T06:42:50.447Z,100.00
2023-01-28T06:47:54.032Z,100.00
2023-01-28T06:52:57.802Z,100.00
2023-01-28T06:58:01.336Z,100.00
2023-01-28T07:03:05.502Z,100.00
2023-01-28T07:08:08.638Z,100.00
2023-01-28T07:13:12.428Z,100.00
2023-01-28T07:18:15.521Z,100.00
2023-01-28T07:23:18.898Z,100.00
2023-01-28T07:28:22.388Z,100.00
2023-01-28T07:33:25.724Z,100.00
2023-01-28T07:38:29.500Z,93.21
2023-01-28T07:43:32.588Z,75.38
2023-01-28T07:48:36.583Z,60.11
2023-01-28T07:53:40.154Z,51.08
2023-01-28T07:58:44.600Z,48.71
2023-01-28T08:03:47.641Z,47.37
2023-01-28T08:08:51.474Z,46.85
2023-01-28T08:13:54.564Z,43.75
2023-01-28T08:18:58.429Z,42.45
2023-01-28T08:24:01.657Z,38.88
2023-01-28T08:29:05.936Z,42.76
2023-01-28T08:34:09.788Z,37.40
2023-01-28T08:39:13.298Z,37.23
2023-01-28T08:44:16.937Z,35.61
2023-01-28T08:49:22.489Z,42.87
2023-01-28T08:54:26.129Z,40.40
2023-01-28T08:59:29.181Z,40.36
2023-01-28T09:04:32.301Z,43.87
2023-01-28T09:09:35.397Z,51.67
2023-01-28T09:14:38.830Z,48.45
2023-01-28T09:19:41.871Z,49.86
2023-01-28T09:24:45.652Z,44.55
2023-01-28T09:29:49.248Z,47.01
2023-01-28T09:34:52.316Z,47.96
2023-01-28T09:39:56.415Z,43.16
2023-01-28T09:45:17.062Z,45.11
2023-01-28T09:50:31.473Z,41.05
2023-01-28T09:55:41.851Z,43.64
2023-01-28T10:01:05.830Z,45.95
2023-01-28T10:06:14.741Z,44.19
2023-01-28T10:11:24.412Z,42.09
2023-01-28T10:16:51.029Z,43.87
2023-01-28T10:22:06.277Z,39.86
2023-01-28T10:27:15.877Z,43.84
2023-01-28T10:32:37.368Z,43.20
2023-01-28T10:37:41.251Z,45.24
2023-01-28T10:42:45.718Z,48.93
2023-01-28T10:48:08.721Z,47.65
2023-01-28T10:53:14.694Z,46.97
2023-01-28T10:58:24.444Z,49.09
2023-01-28T11:26:38.725Z,51.97
2023-01-28T11:31:44.895Z,54.26
2023-01-28T11:36:53.443Z,55.66
2023-01-28T11:42:20.808Z,54.20
2023-01-28T11:48:11.059Z,57.28
2023-01-28T11:53:28.766Z,56.30
2023-01-28T11:58:34.695Z,55.13
2023-01-28T12:04:13.208Z,56.18
2023-01-28T12:09:47.012Z,57.13
2023-01-28T12:15:17.570Z,57.41
2023-01-28T12:20:32.830Z,57.83
2023-01-28T12:25:46.538Z,58.06
2023-01-28T12:31:28.133Z,57.61
2023-01-28T12:37:00.377Z,58.12
2023-01-28T12:42:11.405Z,59.69
2023-01-28T12:47:23.141Z,57.71
2023-01-28T12:52:55.844Z,59.21
2023-01-28T12:57:59.703Z,57.45
2023-01-28T13:03:09.920Z,55.70
2023-01-28T13:08:25.697Z,57.49
2023-01-28T13:13:38.946Z,57.67
2023-01-28T13:18:46.115Z,58.53
2023-01-28T13:23:50.674Z,57.60
2023-01-28T13:28:55.631Z,58.95
2023-01-28T13:33:58.612Z,60.24
2023-01-28T13:39:15.669Z,60.54
2023-01-28T13:44:30.441Z,59.70
2023-01-28T13:49:48.425Z,61.55
2023-01-28T13:55:06.300Z,63.06
2023-01-28T14:00:33.964Z,60.16
2023-01-28T14:05:55.351Z,61.93
2023-01-28T14:11:07.868Z,62.47
2023-01-28T14:16:18.916Z,64.71
2023-01-28T14:21:23.361Z,61.82
2023-01-28T14:26:33.093Z,63.18
2023-01-28T14:31:39.498Z,64.33
2023-01-28T14:36:45.935Z,63.98
2023-01-28T14:41:54.207Z,63.48
2023-01-28T14:47:35.314Z,65.87
2023-01-28T14:52:56.887Z,67.60
2023-01-28T14:58:09.572Z,67.62
2023-01-28T15:03:27.170Z,69.47
2023-01-28T15:08:32.689Z,66.56
2023-01-28T15:13:42.858Z,69.23
2023-01-28T15:18:47.837Z,68.09
2023-01-28T15:24:03.370Z,69.19
2023-01-28T15:29:06.994Z,70.28
2023-01-28T15:34:15.576Z,71.57
2023-01-28T15:39:21.235Z,71.80
2023-01-28T15:44:44.434Z,71.17
2023-01-28T15:49:50.748Z,71.21
2023-01-28T15:54:53.960Z,72.84
2023-01-28T16:00:13.585Z,72.40
2023-01-28T16:05:31.536Z,72.32
2023-01-28T16:10:35.319Z,72.10
2023-01-28T16:15:39.649Z,71.17
2023-01-28T16:20:42.691Z,71.36
2023-01-28T16:25:46.340Z,72.90
2023-01-28T16:30:49.374Z,72.52
2023-01-28T16:36:07.761Z,73.19
2023-01-28T16:41:24.931Z,73.55
2023-01-28T16:46:28.605Z,75.04
2023-01-28T16:51:32.437Z,75.25
2023-01-28T16:56:45.234Z,73.23
2023-01-28T17:01:50.482Z,73.26
2023-01-28T17:06:54.336Z,75.64
2023-01-28T17:11:57.490Z,77.79
2023-01-28T17:17:00.680Z,75.12
2023-01-28T17:22:06.377Z,75.99
2023-01-28T17:27:10.000Z,78.30
2023-01-28T17:32:13.163Z,78.61
2023-01-28T17:37:16.429Z,79.90
2023-01-28T17:42:20.276Z,78.32
2023-01-28T17:47:23.872Z,78.83
2023-01-28T17:52:27.533Z,80.98
2023-01-28T17:57:31.027Z,81.41
2023-01-28T18:02:34.338Z,80.55
2023-01-28T18:07:37.418Z,80.82
2023-01-28T18:12:41.405Z,81.40
2023-01-28T18:17:44.565Z,81.25
2023-01-28T18:22:47.784Z,82.37
2023-01-28T18:27:52.548Z,82.57
2023-01-28T18:32:55.565Z,81.86
2023-01-28T18:38:03.110Z,82.81
2023-01-28T18:43:06.835Z,82.78
2023-01-28T18:48:10.028Z,82.94
2023-01-28T18:53:13.945Z,83.08
2023-01-28T18:58:17.132Z,84.01
2023-01-28T19:03:21.294Z,84.59
2023-01-28T19:08:24.377Z,84.78
2023-01-28T19:13:27.845Z,84.86
2023-01-28T19:18:32.092Z,84.83
2023-01-28T19:23:49.279Z,84.42
2023-01-28T19:28:53.971Z,85.36
2023-01-28T19:33:59.484Z,86.22
2023-01-28T19:39:09.249Z,85.04
2023-01-28T19:44:12.563Z,85.97
2023-01-28T19:49:16.825Z,86.04
2023-01-28T19:54:19.909Z,86.08
2023-01-28T19:59:23.184Z,85.81
2023-01-28T20:04:26.632Z,86.42
2023-01-28T20:09:30.566Z,87.15
2023-01-28T20:14:34.055Z,87.13
2023-01-28T20:19:38.245Z,87.42
2023-01-28T20:24:43.862Z,87.35
2023-01-28T20:29:47.010Z,87.34
2023-01-28T20:34:52.593Z,87.98
2023-01-28T20:39:55.629Z,88.50
2023-01-28T20:44:59.152Z,88.43
2023-01-28T20:50:02.774Z,89.01
2023-01-28T20:55:08.132Z,89.32
2023-01-28T21:00:13.178Z,89.76
2023-01-28T21:05:17.373Z,89.74
2023-01-28T21:10:20.471Z,90.28
2023-01-28T21:15:24.184Z,90.32
2023-01-28T21:20:27.461Z,90.69
2023-01-28T21:25:33.010Z,90.17
2023-01-28T21:30:36.106Z,90.65
2023-01-28T21:35:41.239Z,90.71
2023-01-28T21:40:44.776Z,90.68
2023-01-28T21:45:55.709Z,90.63
2023-01-28T21:51:28.176Z,91.05
2023-01-28T21:56:31.827Z,91.23
2023-01-28T22:01:35.977Z,91.54
2023-01-28T22:06:39.525Z,92.00
2023-01-28T22:11:44.348Z,91.47
2023-01-28T22:16:48.985Z,91.33
2023-01-28T22:21:52.194Z,91.50
2023-01-28T22:26:55.813Z,91.25
2023-01-28T22:31:58.925Z,91.53
2023-01-28T22:37:02.431Z,91.52
2023-01-28T22:42:05.646Z,91.38
2023-01-28T22:47:09.335Z,91.71
2023-01-28T22:52:12.570Z,91.98
2023-01-28T22:57:15.599Z,92.09
2023-01-28T23:02:18.709Z,92.26
2023-01-28T23:07:22.831Z,92.63
2023-01-28T23:12:26.350Z,92.23
2023-01-28T23:17:48.600Z,92.04
2023-01-28T23:23:10.072Z,90.92
2023-01-28T23:28:14.567Z,91.14
2023-01-28T23:33:18.145Z,91.32
2023-01-28T23:38:21.724Z,91.17
2023-01-28T23:43:25.133Z,91.51
2023-01-28T23:48:28.559Z,91.92
2023-01-28T23:53:31.837Z,92.10
2023-01-28T23:58:43.190Z,91.97
